Time;durP1;ratioP1;P1;durP2;ratioP2;P2;SDS_P1;SDS_P2;PMS_P1;PMS_P2;Temp;Humidity;BMP_temperature;BMP_pressure;BME280_temperature;BME280_humidity;BME280_pressure;Samples;Min_cycle;Max_cycle;Signal;HPM_P1;HPM_P2
2023/04/29 00:01:18;;;;;;;;;;;;;;;11.12;100.00;96208.00;5057356;28;20403;-70
2023/04/29 00:03:44;;;;;;;;;;;;;;;11.11;100.00;96203.81;5057934;28;19996;-70
2023/04/29 00:06:10;;;;;;;;;;;;;;;11.09;100.00;96203.22;5057359;28;20385;-70
2023/04/29 00:08:36;;;;;;;;;;;;;;;11.06;100.00;96204.47;5075657;28;19944;-70
2023/04/29 00:11:02;;;;;;;;;;;;;;;11.06;100.00;96198.41;5057083;28;19969;-70
2023/04/29 00:13:28;;;;;;;;;;;;;;;11.04;100.00;96192.59;5075239;28;19948;-72
2023/04/29 00:15:54;;;;;;;;;;;;;;;11.02;100.00;96195.44;5075430;28;19937;-72
2023/04/29 00:18:20;;;;;;;;;;;;;;;10.99;100.00;96193.28;5074925;28;20034;-73
2023/04/29 00:20:46;;;;;;;;;;;;;;;10.96;100.00;96191.91;5075708;28;19947;-73
2023/04/29 00:23:12;;;;;;;;;;;;;;;10.95;100.00;96189.50;5056799;28;19946;-72
2023/04/29 00:25:38;;;;;;;;;;;;;;;10.92;100.00;96195.22;5075582;28;19944;-72
2023/04/29 00:28:04;;;;;;;;;;;;;;;10.89;100.00;96206.94;5075514;28;19942;-73
2023/04/29 00:30:32;;;;;;;;;;;;;;;10.89;100.00;96198.28;5074621;28;19940;-72
2023/04/29 00:32:58;;;;;;;;;;;;;;;10.87;100.00;96197.72;5075068;28;19944;-77
2023/04/29 00:35:23;;;;;;;;;;;;;;;10.86;100.00;96193.50;5074904;28;20306;-79
2023/04/29 00:37:49;;;;;;;;;;;;;;;10.84;100.00;96191.09;5074531;28;20053;-78
2023/04/29 00:40:16;;;;;;;;;;;;;;;10.82;100.00;96190.53;5056534;28;19950;-78
2023/04/29 00:42:42;;;;;;;;;;;;;;;10.81;100.00;96196.78;5074753;28;19938;-78
2023/04/29 00:45:08;;;;;;;;;;;;;;;10.79;100.00;96196.19;5074374;28;20030;-79
2023/04/29 00:47:34;;;;;;;;;;;;;;;10.76;100.00;96200.06;5075226;28;19958;-78
2023/04/29 00:50:00;;;;;;;;;;;;;;;10.75;100.00;96205.53;5074869;28;20045;-79
2023/04/29 00:52:29;;;;;;;;;;;;;;;10.73;100.00;96202.34;5039807;28;19974;-80
2023/04/29 00:54:55;;;;;;;;;;;;;;;10.72;100.00;96200.75;5074711;28;19952;-80
2023/04/29 00:57:21;;;;;;;;;;;;;;;10.71;100.00;96196.56;5074108;28;19946;-81
2023/04/29 00:59:47;;;;;;;;;;;;;;;10.69;100.00;96206.47;5074171;28;20001;-80
2023/04/29 01:02:14;;;;;;;;;;;;;;;10.69;100.00;96209.09;5074028;28;19945;-80
2023/04/29 01:04:39;;;;;;;;;;;;;;;10.69;100.00;96211.72;5056152;28;19964;-80
2023/04/29 01:07:06;;;;;;;;;;;;;;;10.68;100.00;96202.22;5074298;28;20438;-79
2023/04/29 01:09:37;;;;;;;;;;;;;;;10.66;100.00;96194.56;5039498;28;19945;-78
2023/04/29 01:12:22;;;;;;;;;;;;;;;10.64;100.00;96194.00;5056894;28;19958;-80
2023/04/29 01:14:54;;;;;;;;;;;;;;;10.63;100.00;96200.28;5055953;28;19959;-79
2023/04/29 01:17:24;;;;;;;;;;;;;;;10.61;100.00;96204.94;5073850;28;19948;-80
2023/04/29 01:19:53;;;;;;;;;;;;;;;10.59;100.00;96193.88;5073831;28;20310;-79
2023/04/29 01:22:20;;;;;;;;;;;;;;;10.59;100.00;96203.59;5074350;28;19936;-79
2023/04/29 01:24:47;;;;;;;;;;;;;;;10.58;100.00;96200.13;5055941;28;19946;-80
2023/04/29 01:27:20;;;;;;;;;;;;;;;10.56;100.00;96197.75;5056718;28;19964;-75
2023/04/29 01:29:48;;;;;;;;;;;;;;;10.56;100.00;96195.13;5040136;28;19942;-78
2023/04/29 01:32:22;;;;;;;;;;;;;;;10.54;100.00;96198.97;5056676;28;20072;-79
2023/04/29 01:34:51;;;;;;;;;;;;;;;10.52;100.00;96190.53;5056142;28;19947;-79
2023/04/29 01:37:30;;;;;;;;;;;;;;;10.50;100.00;96198.66;5073708;28;19975;-78
2023/04/29 01:40:04;;;;;;;;;;;;;;;10.50;100.00;96200.47;5056634;28;19955;-78
2023/04/29 01:42:38;;;;;;;;;;;;;;;10.49;100.00;96194.41;5039829;28;19943;-79
2023/04/29 01:45:05;;;;;;;;;;;;;;;10.48;100.00;96195.44;5074135;28;19956;-69
2023/04/29 01:47:31;;;;;;;;;;;;;;;10.46;100.00;96194.09;5073659;28;19938;-75
2023/04/29 01:49:57;;;;;;;;;;;;;;;10.46;100.00;96188.84;5074121;28;19992;-75
2023/04/29 01:52:23;;;;;;;;;;;;;;;10.45;100.00;96189.84;5073480;28;20426;-75
2023/04/29 01:54:49;;;;;;;;;;;;;;;10.44;100.00;96199.53;5074402;28;20395;-75
2023/04/29 01:57:15;;;;;;;;;;;;;;;10.43;100.00;96197.13;5073478;28;19954;-75
2023/04/29 01:59:41;;;;;;;;;;;;;;;10.42;100.00;96195.56;5073484;28;20388;-75
2023/04/29 02:02:08;;;;;;;;;;;;;;;10.41;100.00;96194.72;5073479;28;19935;-75
2023/04/29 02:04:34;;;;;;;;;;;;;;;10.44;100.00;96204.00;5073939;28;20382;-72
2023/04/29 02:07:00;;;;;;;;;;;;;;;10.41;100.00;96199.97;5073432;28;19951;-76
2023/04/29 02:09:26;;;;;;;;;;;;;;;10.38;100.00;96192.56;5074195;28;19941;-75
2023/04/29 02:11:52;;;;;;;;;;;;;;;10.38;100.00;96191.78;5039241;28;19962;-74
2023/04/29 02:14:18;;;;;;;;;;;;;;;10.35;100.00;96193.81;5055682;28;19944;-74
2023/04/29 02:16:44;;;;;;;;;;;;;;;10.38;100.00;96195.19;5073556;28;19968;-75
2023/04/29 02:19:10;;;;;;;;;;;;;;;10.45;100.00;96195.88;5073430;28;20312;-75
2023/04/29 02:21:38;;;;;;;;;;;;;;;10.48;100.00;96197.28;5073300;28;20328;-75
2023/04/29 02:24:05;;;;;;;;;;;;;;;10.48;100.00;96198.06;5055356;28;19972;-81
2023/04/29 02:26:31;;;;;;;;;;;;;;;10.51;100.00;96202.84;5056233;28;19946;-72
2023/04/29 02:28:57;;;;;;;;;;;;;;;10.49;100.00;96194.41;5073226;28;19950;-72
2023/04/29 02:31:23;;;;;;;;;;;;;;;10.50;100.00;96197.84;5073934;28;20007;-72
2023/04/29 02:33:49;;;;;;;;;;;;;;;10.47;100.00;96195.66;5055342;28;19941;-72
2023/04/29 02:36:16;;;;;;;;;;;;;;;10.47;100.00;96193.03;5073086;28;19968;-72
2023/04/29 02:38:42;;;;;;;;;;;;;;;10.46;100.00;96191.47;5073741;28;19949;-72
2023/04/29 02:41:08;;;;;;;;;;;;;;;10.46;100.00;96188.84;5073908;28;20056;-73
2023/04/29 02:43:34;;;;;;;;;;;;;;;10.46;100.00;96199.31;5056167;28;20316;-69
2023/04/29 02:46:00;;;;;;;;;;;;;;;10.48;100.00;96198.06;5038507;28;19993;-70
2023/04/29 02:48:26;;;;;;;;;;;;;;;10.48;100.00;96190.22;5055160;28;19951;-69
2023/04/29 02:50:52;;;;;;;;;;;;;;;10.48;100.00;96194.66;5055689;28;19942;-69
2023/04/29 02:53:18;;;;;;;;;;;;;;;10.46;100.00;96189.63;5038665;28;19991;-69
2023/04/29 02:55:43;;;;;;;;;;;;;;;10.46;100.00;96188.84;5056859;28;19952;-70
2023/04/29 02:58:09;;;;;;;;;;;;;;;10.42;100.00;96193.72;5041983;28;19980;-75
2023/04/29 03:00:35;;;;;;;;;;;;;;;10.40;100.00;96192.34;5076444;28;19954;-79
2023/04/29 03:03:01;;;;;;;;;;;;;;;10.40;100.00;96190.53;5077247;28;19953;-76
2023/04/29 03:05:27;;;;;;;;;;;;;;;10.40;100.00;96197.59;5076855;28;19954;-75
2023/04/29 03:07:53;;;;;;;;;;;;;;;10.36;100.00;96197.22;5076306;28;19950;-75
2023/04/29 03:10:19;;;;;;;;;;;;;;;10.35;100.00;96198.22;5059151;28;19954;-76
2023/04/29 03:12:44;;;;;;;;;;;;;;;10.33;100.00;96198.47;5076693;28;20410;-75
2023/04/29 03:15:10;;;;;;;;;;;;;;;10.33;100.00;96202.91;5058189;28;19948;-75
2023/04/29 03:17:36;;;;;;;;;;;;;;;10.31;100.00;96203.13;5059144;28;19953;-80
2023/04/29 03:20:02;;;;;;;;;;;;;;;10.29;100.00;96201.72;5076031;28;19943;-82
2023/04/29 03:22:28;;;;;;;;;;;;;;;10.27;100.00;96195.91;5076357;28;19952;-81
2023/04/29 03:24:54;;;;;;;;;;;;;;;10.25;100.00;96190.09;5058297;28;19950;-80
2023/04/29 03:27:20;;;;;;;;;;;;;;;10.24;100.00;96194.53;5075991;28;19939;-81
2023/04/29 03:29:46;;;;;;;;;;;;;;;10.21;100.00;96196.81;5076740;28;20003;-81
2023/04/29 03:32:12;;;;;;;;;;;;;;;10.15;100.00;96180.94;5058323;28;19964;-80
2023/04/29 03:34:37;;;;;;;;;;;;;;;10.14;100.00;96194.25;5076190;28;19969;-75
2023/04/29 03:37:03;;;;;;;;;;;;;;;10.08;100.00;96188.09;5075676;28;20000;-76
2023/04/29 03:39:31;;;;;;;;;;;;;;;10.06;100.00;96184.09;5076100;28;19949;-80
2023/04/29 03:41:58;;;;;;;;;;;;;;;10.03;100.00;96184.50;5076458;28;19942;-79
2023/04/29 03:44:24;;;;;;;;;;;;;;;10.01;100.00;96189.97;5075601;28;19944;-80
2023/04/29 03:46:50;;;;;;;;;;;;;;;10.00;100.00;96185.75;5058373;28;19955;-79
2023/04/29 03:49:16;;;;;;;;;;;;;;;10.00;100.00;96179.72;5076364;28;19955;-80
2023/04/29 03:51:44;;;;;;;;;;;;;;;9.98;100.00;96179.16;5075960;28;19960;-80
2023/04/29 03:54:11;;;;;;;;;;;;;;;9.99;100.00;96183.34;5075901;28;19940;-80
2023/04/29 03:56:36;;;;;;;;;;;;;;;10.00;100.00;96185.75;5076005;28;20307;-80
2023/04/29 03:59:02;;;;;;;;;;;;;;;10.01;100.00;96184.72;5075377;28;19948;-80
2023/04/29 04:01:28;;;;;;;;;;;;;;;10.02;100.00;96182.94;5057346;28;19948;-80
2023/04/29 04:03:54;;;;;;;;;;;;;;;10.02;100.00;96188.16;5075217;28;19941;-79
2023/04/29 04:06:20;;;;;;;;;;;;;;;9.99;100.00;96178.13;5041059;28;19952;-81
2023/04/29 04:08:46;;;;;;;;;;;;;;;10.00;100.00;96177.91;5057123;28;19954;-80
2023/04/29 04:11:13;;;;;;;;;;;;;;;9.99;100.00;96188.59;5057061;28;20336;-80
2023/04/29 04:13:42;;;;;;;;;;;;;;;9.96;100.00;96180.16;5040622;28;19944;-79
2023/04/29 04:16:09;;;;;;;;;;;;;;;9.95;100.00;96183.00;5040499;28;20324;-74
2023/04/29 04:18:36;;;;;;;;;;;;;;;9.95;100.00;96189.03;5075791;28;19943;-74
2023/04/29 04:21:11;;;;;;;;;;;;;;;9.94;100.00;96194.50;5074850;28;19938;-77
2023/04/29 04:23:39;;;;;;;;;;;;;;;9.92;100.00;96197.31;5057657;28;19949;-75
2023/04/29 04:26:06;;;;;;;;;;;;;;;9.89;100.00;96197.78;5074761;28;19951;-74
2023/04/29 04:28:32;;;;;;;;;;;;;;;9.90;100.00;96195.94;5074740;28;20005;-74
2023/04/29 04:30:57;;;;;;;;;;;;;;;9.89;100.00;96199.56;5075500;28;19940;-71
2023/04/29 04:33:24;;;;;;;;;;;;;;;9.90;100.00;96203.81;5074617;28;20066;-70
2023/04/29 04:35:50;;;;;;;;;;;;;;;9.90;100.00;96201.19;5074554;28;19942;-69
2023/04/29 04:38:16;;;;;;;;;;;;;;;9.89;100.00;96213.50;5040938;28;19960;-69
2023/04/29 04:40:42;;;;;;;;;;;;;;;9.89;100.00;96216.13;5074481;28;19945;-70
2023/04/29 04:43:08;;;;;;;;;;;;;;;9.92;100.00;96214.88;5075023;28;19947;-70
2023/04/29 04:45:35;;;;;;;;;;;;;;;10.03;100.00;96227.22;5074695;28;19943;-69
2023/04/29 04:48:01;;;;;;;;;;;;;;;10.21;100.00;96229.03;5057220;28;19954;-69
2023/04/29 04:50:28;;;;;;;;;;;;;;;10.48;100.00;96234.00;5074912;28;19947;-80
2023/04/29 04:52:54;;;;;;;;;;;;;;;10.74;100.00;96230.97;5074735;28;19956;-79
2023/04/29 04:55:20;;;;;;;;;;;;;;;11.01;100.00;96227.97;5056163;28;19947;-81
2023/04/29 04:57:46;;;;;;;;;;;;;;;11.28;100.00;96223.09;5074133;28;19943;-80
2023/04/29 05:00:12;;;;;;;;;;;;;;;11.54;100.00;96223.66;5074927;28;19941;-80
2023/04/29 05:02:38;;;;;;;;;;;;;;;11.77;100.00;96223.63;5074037;28;19945;-81
2023/04/29 05:05:04;;;;;;;;;;;;;;;12.07;100.00;96224.53;5056427;28;19990;-81
2023/04/29 05:07:31;;;;;;;;;;;;;;;12.38;100.00;96223.31;5056965;28;19946;-70
2023/04/29 05:09:57;;;;;;;;;;;;;;;12.73;100.00;96227.63;5074545;28;20321;-79
2023/04/29 05:12:24;;;;;;;;;;;;;;;12.99;100.00;96229.63;5056122;28;19975;-81
2023/04/29 05:14:52;;;;;;;;;;;;;;;13.30;100.00;96224.09;5074768;28;20268;-79
2023/04/29 05:17:18;;;;;;;;;;;;;;;13.64;100.00;96231.97;5074006;28;20416;-79
2023/04/29 05:19:44;;;;;;;;;;;;;;;14.02;100.00;96237.22;5056338;28;19952;-80
2023/04/29 05:22:10;;;;;;;;;;;;;;;14.34;100.00;96233.91;5073844;28;19946;-80
2023/04/29 05:24:36;;;;;;;;;;;;;;;14.66;100.00;96237.69;5074280;28;19952;-80
2023/04/29 05:27:03;;;;;;;;;;;;;;;14.96;100.00;96235.34;5055841;28;19946;-82
2023/04/29 05:29:29;;;;;;;;;;;;;;;15.21;95.07;96205.72;5056841;28;19941;-76
2023/04/29 05:31:55;;;;;;;;;;;;;;;15.32;96.80;96235.63;5074214;28;19965;-76
2023/04/29 05:34:20;;;;;;;;;;;;;;;15.45;97.36;96242.34;5073746;28;20482;-76
2023/04/29 05:36:46;;;;;;;;;;;;;;;15.71;94.36;96227.44;5073862;28;20029;-76
2023/04/29 05:39:12;;;;;;;;;;;;;;;16.04;96.65;96241.38;5074273;28;19997;-76
2023/04/29 05:41:38;;;;;;;;;;;;;;;16.36;96.53;96245.78;5055779;28;19989;-76
2023/04/29 05:44:04;;;;;;;;;;;;;;;16.68;92.56;96223.63;5073815;28;20040;-73
2023/04/29 05:46:30;;;;;;;;;;;;;;;16.90;88.86;96204.88;5039024;28;19942;-76
2023/04/29 05:48:56;;;;;;;;;;;;;;;17.07;88.65;96217.84;5073847;28;19943;-79
2023/04/29 05:51:22;;;;;;;;;;;;;;;17.21;86.42;96210.97;5055773;28;19997;-81
2023/04/29 05:53:48;;;;;;;;;;;;;;;17.39;86.59;96226.34;5039194;28;19948;-80
2023/04/29 05:56:13;;;;;;;;;;;;;;;17.62;87.13;96227.63;5073464;28;19945;-80
2023/04/29 05:58:39;;;;;;;;;;;;;;;17.91;85.63;96228.91;5055955;28;19951;-80
2023/04/29 06:01:06;;;;;;;;;;;;;;;18.10;84.12;96214.03;5055619;28;19948;-81
2023/04/29 06:03:31;;;;;;;;;;;;;;;18.34;84.66;96229.31;5074059;28;20303;-77
2023/04/29 06:05:57;;;;;;;;;;;;;;;18.49;84.39;96229.22;5073460;28;19952;-76
2023/04/29 06:08:23;;;;;;;;;;;;;;;18.64;81.97;96218.50;5056177;28;19954;-77
2023/04/29 06:10:51;;;;;;;;;;;;;;;18.82;81.28;96216.31;5073351;28;19946;-76
2023/04/29 06:13:17;;;;;;;;;;;;;;;18.91;77.08;96190.75;5073218;28;19958;-77
2023/04/29 06:15:43;;;;;;;;;;;;;;;18.90;78.93;96212.28;5073926;28;19953;-78
2023/04/29 06:18:09;;;;;;;;;;;;;;;18.98;76.59;96199.22;5055984;28;19941;-77
2023/04/29 06:20:35;;;;;;;;;;;;;;;18.96;71.61;96164.16;5073328;28;19944;-73
2023/04/29 06:23:00;;;;;;;;;;;;;;;18.65;73.09;96195.41;5073317;28;19949;-83
2023/04/29 06:25:26;;;;;;;;;;;;;;;18.56;71.92;96202.38;5055536;28;19938;-83
2023/04/29 06:27:52;;;;;;;;;;;;;;;18.57;77.19;96238.50;5055296;28;19944;-83
2023/04/29 06:30:18;;;;;;;;;;;;;;;18.70;75.86;96232.56;5058308;28;19999;-83
2023/04/29 06:32:44;;;;;;;;;;;;;;;18.77;76.97;96248.19;5043100;28;20050;-84
2023/04/29 06:35:10;;;;;;;;;;;;;;;18.67;71.20;96198.59;5042801;28;20443;-82
2023/04/29 06:37:36;;;;;;;;;;;;;;;18.35;74.85;96230.88;5077020;28;19981;-83
2023/04/29 06:40:02;;;;;;;;;;;;;;;17.95;75.36;96240.59;5076825;28;19954;-78
2023/04/29 06:42:28;;;;;;;;;;;;;;;17.49;73.40;96222.06;5059870;28;19947;-76
2023/04/29 06:44:53;;;;;;;;;;;;;;;16.89;75.26;96238.50;5058882;28;20381;-75
2023/04/29 06:47:20;;;;;;;;;;;;;;;16.34;79.05;96288.38;5076699;28;19941;-76
2023/04/29 06:49:46;;;;;;;;;;;;;;;15.85;79.63;96293.91;5059318;28;19964;-76
2023/04/29 06:52:12;;;;;;;;;;;;;;;15.44;82.29;96325.31;5058497;28;20411;-76
2023/04/29 06:54:38;;;;;;;;;;;;;;;15.10;82.03;96322.91;5077096;28;20298;-75
2023/04/29 06:57:04;;;;;;;;;;;;;;;14.97;86.05;96350.50;5076506;28;19937;-74
2023/04/29 06:59:31;;;;;;;;;;;;;;;15.17;87.04;96349.91;5059386;28;19966;-76
2023/04/29 07:01:57;;;;;;;;;;;;;;;15.29;86.86;96346.31;5076483;28;19942;-70
2023/04/29 07:04:23;;;;;;;;;;;;;;;15.29;82.61;96312.78;5042576;28;19942;-70
2023/04/29 07:06:50;;;;;;;;;;;;;;;15.25;86.82;96350.50;5059179;28;19944;-70
2023/04/29 07:09:15;;;;;;;;;;;;;;;15.10;87.13;96353.78;5076312;28;19938;-70
2023/04/29 07:11:42;;;;;;;;;;;;;;;14.92;84.79;96339.88;5058372;28;20400;-70
2023/04/29 07:14:07;;;;;;;;;;;;;;;14.82;85.87;96352.97;5041687;28;19945;-70
2023/04/29 07:16:33;;;;;;;;;;;;;;;14.68;86.26;96357.00;5059139;28;19940;-81
2023/04/29 07:18:59;;;;;;;;;;;;;;;14.61;84.94;96355.38;5041837;28;19957;-78
2023/04/29 07:21:25;;;;;;;;;;;;;;;15.01;87.76;96370.09;5076705;28;19942;-78
2023/04/29 07:23:52;;;;;;;;;;;;;;;15.56;88.62;96376.16;5076028;28;19950;-78
2023/04/29 07:26:18;;;;;;;;;;;;;;;16.12;87.40;96364.44;5058552;28;20305;-79
2023/04/29 07:28:44;;;;;;;;;;;;;;;16.59;85.00;96348.56;5042158;28;20038;-79
2023/04/29 07:31:13;;;;;;;;;;;;;;;16.93;80.98;96326.19;5075834;28;19938;-79
2023/04/29 07:33:39;;;;;;;;;;;;;;;17.12;78.64;96303.44;5076259;28;19958;-78
2023/04/29 07:36:06;;;;;;;;;;;;;;;17.04;72.09;96250.97;5057774;28;20449;-79
2023/04/29 07:38:33;;;;;;;;;;;;;;;17.00;80.68;96314.28;5076520;28;19941;-75
2023/04/29 07:40:59;;;;;;;;;;;;;;;17.07;78.94;96302.63;5074944;28;19946;-75
2023/04/29 07:43:25;;;;;;;;;;;;;;;17.19;80.34;96322.53;5075863;28;19938;-76
2023/04/29 07:45:51;;;;;;;;;;;;;;;17.22;76.97;96292.06;5057729;28;20049;-75
2023/04/29 07:48:16;;;;;;;;;;;;;;;17.32;75.91;96281.47;5075539;28;19952;-75
2023/04/29 07:50:43;;;;;;;;;;;;;;;17.40;75.61;96294.19;5076082;28;19940;-76
2023/04/29 07:53:09;;;;;;;;;;;;;;;17.50;76.37;96296.06;5075385;28;19961;-78
2023/04/29 07:55:36;;;;;;;;;;;;;;;17.59;75.25;96283.84;5041015;28;19942;-72
2023/04/29 07:58:02;;;;;;;;;;;;;;;17.69;74.92;96283.03;5040931;28;19946;-72
2023/04/29 08:00:28;;;;;;;;;;;;;;;17.71;73.64;96274.84;5075761;28;19939;-72
2023/04/29 08:02:54;;;;;;;;;;;;;;;17.83;72.03;96267.41;5057473;28;19940;-72
2023/04/29 08:05:20;;;;;;;;;;;;;;;17.97;73.09;96271.09;5057412;28;19968;-72
2023/04/29 08:07:47;;;;;;;;;;;;;;;18.04;74.19;96274.25;5058056;28;19941;-72
2023/04/29 08:10:13;;;;;;;;;;;;;;;18.03;72.54;96283.28;5040493;28;19941;-72
2023/04/29 08:12:40;;;;;;;;;;;;;;;18.14;70.49;96252.22;5075897;28;19955;-77
2023/04/29 08:15:06;;;;;;;;;;;;;;;18.28;71.33;96278.97;5074977;28;19941;-72
2023/04/29 08:17:32;;;;;;;;;;;;;;;18.28;70.41;96255.06;5057412;28;20347;-72
2023/04/29 08:19:58;;;;;;;;;;;;;;;18.08;71.35;96282.50;5041405;28;19948;-72
2023/04/29 08:22:24;;;;;;;;;;;;;;;17.83;68.77;96241.69;5056859;28;20003;-73
2023/04/29 08:24:50;;;;;;;;;;;;;;;17.67;73.27;96302.94;5075339;28;20303;-72
2023/04/29 08:27:16;;;;;;;;;;;;;;;17.72;73.55;96298.41;5057403;28;19998;-72
2023/04/29 08:29:42;;;;;;;;;;;;;;;17.78;69.14;96257.56;5040175;28;19950;-76
2023/04/29 08:32:08;;;;;;;;;;;;;;;17.68;74.19;96317.78;5075149;28;19947;-80
2023/04/29 08:34:35;;;;;;;;;;;;;;;17.54;72.88;96313.03;5074660;28;20304;-71
2023/04/29 08:37:01;;;;;;;;;;;;;;;17.67;71.87;96297.63;5040221;28;19982;-71
2023/04/29 08:39:28;;;;;;;;;;;;;;;17.87;71.32;96281.75;5040027;28;19955;-70
2023/04/29 08:41:56;;;;;;;;;;;;;;;17.77;70.47;96279.84;5074519;28;19959;-71
2023/04/29 08:44:22;;;;;;;;;;;;;;;17.68;73.33;96309.81;5040002;28;19943;-71
2023/04/29 08:46:48;;;;;;;;;;;;;;;17.54;73.63;96313.03;5074436;28;20304;-70
2023/04/29 08:49:14;;;;;;;;;;;;;;;17.28;71.91;96295.50;5057339;28;20419;-76
2023/04/29 08:51:40;;;;;;;;;;;;;;;17.12;76.10;96329.94;5075174;28;19942;-77
2023/04/29 08:54:06;;;;;;;;;;;;;;;17.12;72.12;96292.84;5056826;28;19957;-78
2023/04/29 08:56:33;;;;;;;;;;;;;;;17.14;73.53;96308.50;5056476;28;19946;-77
2023/04/29 08:59:00;;;;;;;;;;;;;;;17.38;72.28;96295.50;5075017;28;19943;-76
2023/04/29 09:01:26;;;;;;;;;;;;;;;17.72;69.70;96271.88;5039619;28;20427;-78
2023/04/29 09:04:03;;;;;;;;;;;;;;;18.11;70.95;96278.50;5039545;28;19950;-76
2023/04/29 09:06:29;;;;;;;;;;;;;;;18.27;68.53;96269.44;5056992;28;19939;-75
2023/04/29 09:08:57;;;;;;;;;;;;;;;18.18;68.26;96271.03;5074017;28;19954;-71
2023/04/29 09:11:23;;;;;;;;;;;;;;;18.02;68.97;96276.38;5039469;28;19956;-74
2023/04/29 09:13:49;;;;;;;;;;;;;;;17.83;65.95;96240.91;5074499;28;19956;-73
2023/04/29 09:16:15;;;;;;;;;;;;;;;17.82;66.81;96253.34;5056137;28;19945;-73
2023/04/29 09:18:42;;;;;;;;;;;;;;;18.00;65.15;96237.94;5040242;28;19950;-73
2023/04/29 09:21:16;;;;;;;;;;;;;;;18.02;66.90;96279.03;5039468;28;19943;-74
2023/04/29 09:23:44;;;;;;;;;;;;;;;18.27;67.04;96295.97;5073361;28;20179;-73
2023/04/29 09:26:10;;;;;;;;;;;;;;;18.32;66.12;96333.09;5073838;28;19941;-74
2023/04/29 09:28:38;;;;;;;;;;;;;;;18.11;64.94;96329.72;5073769;28;19996;-81
2023/04/29 09:31:05;;;;;;;;;;;;;;;17.82;63.95;96342.72;5039957;28;19942;-80
2023/04/29 09:33:31;;;;;;;;;;;;;;;17.58;70.95;96380.38;5039321;28;19969;-80
2023/04/29 09:35:57;;;;;;;;;;;;;;;17.43;66.55;96364.47;5039340;28;19959;-80
2023/04/29 09:38:23;;;;;;;;;;;;;;;17.28;63.18;96351.16;5073778;28;19951;-80
2023/04/29 09:40:50;;;;;;;;;;;;;;;17.44;70.01;96380.09;5039623;28;19955;-78
2023/04/29 09:43:17;;;;;;;;;;;;;;;17.66;65.80;96349.91;5074231;28;19948;-71
2023/04/29 09:45:47;;;;;;;;;;;;;;;17.97;70.99;96374.56;5055631;28;19952;-76
2023/04/29 09:48:13;;;;;;;;;;;;;;;18.09;66.61;96353.06;5073486;28;20319;-76
2023/04/29 09:50:40;;;;;;;;;;;;;;;18.05;67.17;96359.97;5055474;28;19954;-76
2023/04/29 09:53:08;;;;;;;;;;;;;;;17.89;64.13;96351.25;5055642;28;19963;-76
2023/04/29 09:55:34;;;;;;;;;;;;;;;17.58;64.34;96345.13;5073512;28;19948;-76
2023/04/29 09:58:01;;;;;;;;;;;;;;;17.28;66.50;96356.47;5073703;28;20281;-76
2023/04/29 10:00:30;;;;;;;;;;;;;;;17.02;68.18;96370.44;5055428;28;19955;-76
2023/04/29 10:02:57;;;;;;;;;;;;;;;16.77;65.39;96365.84;5055598;28;19959;-77
2023/04/29 10:05:26;;;;;;;;;;;;;;;16.62;66.46;96369.22;5058855;28;19940;-71
2023/04/29 10:07:53;;;;;;;;;;;;;;;16.71;65.85;96366.06;5043953;28;20323;-71
2023/04/29 10:10:20;;;;;;;;;;;;;;;17.08;66.91;96376.56;5077847;28;19952;-71
2023/04/29 10:12:46;;;;;;;;;;;;;;;17.27;68.09;96371.59;5078079;28;19966;-71
2023/04/29 10:15:31;;;;;;;;;;;;;;;17.20;68.31;96368.41;5077816;28;19946;-72
2023/04/29 10:18:17;;;;;;;;;;;;;;;17.03;67.07;96373.91;5060096;28;19951;-71
2023/04/29 10:20:45;;;;;;;;;;;;;;;16.97;68.59;96390.84;5077054;28;20316;-71
2023/04/29 10:23:14;;;;;;;;;;;;;;;17.03;66.82;96385.31;5077221;28;20416;-70
2023/04/29 10:25:41;;;;;;;;;;;;;;;17.23;68.09;96379.25;5042657;28;20327;-70
2023/04/29 10:28:08;;;;;;;;;;;;;;;17.43;68.43;96364.47;5077439;28;19965;-71
2023/04/29 10:30:34;;;;;;;;;;;;;;;17.75;65.61;96347.50;5043269;28;19945;-70
2023/04/29 10:33:01;;;;;;;;;;;;;;;17.95;64.39;96344.84;5059176;28;19955;-70
2023/04/29 10:35:27;;;;;;;;;;;;;;;17.98;61.29;96336.38;5059111;28;20336;-71
2023/04/29 10:37:55;;;;;;;;;;;;;;;17.94;62.47;96348.56;5076703;28;19967;-75
2023/04/29 10:40:23;;;;;;;;;;;;;;;17.84;61.33;96330.00;5059199;28;20291;-80
2023/04/29 10:42:51;;;;;;;;;;;;;;;17.70;61.63;96337.69;5059108;28;20406;-77
2023/04/29 10:45:19;;;;;;;;;;;;;;;17.62;64.76;96354.13;5076695;28;19946;-77
2023/04/29 10:48:01;;;;;;;;;;;;;;;17.62;66.44;96364.75;5076787;28;19947;-77
2023/04/29 10:50:30;;;;;;;;;;;;;;;17.79;65.79;96359.16;5077347;28;19947;-77
2023/04/29 10:52:56;;;;;;;;;;;;;;;18.05;64.60;96344.84;5076484;28;19974;-76
2023/04/29 10:55:23;;;;;;;;;;;;;;;18.33;65.84;96347.16;5077407;28;19946;-77
2023/04/29 10:57:52;;;;;;;;;;;;;;;18.49;61.29;96330.13;5076520;28;19944;-71
2023/04/29 11:00:22;;;;;;;;;;;;;;;18.46;61.94;96336.78;5042575;28;19952;-78
2023/04/29 11:02:48;;;;;;;;;;;;;;;18.52;62.66;96329.59;5076405;28;20325;-77
2023/04/29 11:05:16;;;;;;;;;;;;;;;18.56;57.55;96319.22;5058601;28;19938;-79
2023/04/29 11:07:44;;;;;;;;;;;;;;;18.12;62.80;96341.94;5058905;28;19959;-78
2023/04/29 11:10:11;;;;;;;;;;;;;;;17.83;62.93;96352.31;5058526;28;19943;-79
2023/04/29 11:12:37;;;;;;;;;;;;;;;17.95;63.39;96346.72;5076380;28;19941;-78
2023/04/29 11:15:07;;;;;;;;;;;;;;;18.08;63.10;96348.00;5076536;28;19945;-71
2023/04/29 11:17:37;;;;;;;;;;;;;;;18.07;62.07;96341.13;5057038;28;19948;-80
2023/04/29 11:20:03;;;;;;;;;;;;;;;18.21;61.73;96328.91;5058358;28;19949;-76
2023/04/29 11:22:29;;;;;;;;;;;;;;;18.41;61.51;96333.34;5058999;28;19939;-76
2023/04/29 11:24:55;;;;;;;;;;;;;;;18.51;62.32;96335.19;5075944;28;19944;-76
2023/04/29 11:27:26;;;;;;;;;;;;;;;18.79;62.35;96337.22;5057714;28;19937;-76
2023/04/29 11:29:57;;;;;;;;;;;;;;;18.72;61.04;96334.03;5058215;28;19943;-76
2023/04/29 11:32:29;;;;;;;;;;;;;;;18.52;59.33;96329.59;5075649;28;19963;-77
2023/04/29 11:35:08;;;;;;;;;;;;;;;18.39;61.92;96349.53;5076172;28;19968;-78
2023/04/29 11:37:34;;;;;;;;;;;;;;;18.39;62.91;96352.19;5057623;28;19970;-79
2023/04/29 11:40:00;;;;;;;;;;;;;;;18.28;59.36;96337.38;5058299;28;19973;-79
2023/04/29 11:42:27;;;;;;;;;;;;;;;18.04;61.15;96343.25;5076435;28;20438;-79
2023/04/29 11:44:55;;;;;;;;;;;;;;;17.85;62.23;96350.97;5075730;28;20308;-79
2023/04/29 11:47:25;;;;;;;;;;;;;;;17.78;64.81;96357.56;5057919;28;20393;-79
2023/04/29 11:49:51;;;;;;;;;;;;;;;17.70;62.51;96345.66;5075805;28;19937;-79
2023/04/29 11:52:17;;;;;;;;;;;;;;;17.67;63.96;96359.44;5075587;28;20384;-76
2023/04/29 11:54:43;;;;;;;;;;;;;;;17.55;62.60;96357.03;5076109;28;20425;-70
2023/04/29 11:57:09;;;;;;;;;;;;;;;17.47;59.66;96344.31;5041618;28;20443;-75
2023/04/29 11:59:35;;;;;;;;;;;;;;;17.34;62.73;96369.47;5057871;28;19944;-76
2023/04/29 12:02:01;;;;;;;;;;;;;;;17.10;61.49;96353.25;5075399;28;19990;-76
2023/04/29 12:04:27;;;;;;;;;;;;;;;17.07;63.40;96366.22;5057959;28;19986;-74
2023/04/29 12:06:55;;;;;;;;;;;;;;;17.37;65.38;96373.47;5075073;28;19943;-76
2023/04/29 12:09:22;;;;;;;;;;;;;;;17.52;62.97;96352.25;5057166;28;20300;-77
2023/04/29 12:11:49;;;;;;;;;;;;;;;17.22;59.81;96342.44;5057200;28;20386;-79
2023/04/29 12:14:15;;;;;;;;;;;;;;;16.99;62.04;96357.75;5074990;28;19959;-71
2023/04/29 12:16:41;;;;;;;;;;;;;;;16.93;64.16;96371.22;5056999;28;19949;-71
2023/04/29 12:19:09;;;;;;;;;;;;;;;17.13;62.47;96357.22;5041513;28;19954;-71
2023/04/29 12:21:35;;;;;;;;;;;;;;;17.34;63.44;96358.06;5057575;28;19944;-71
2023/04/29 12:24:01;;;;;;;;;;;;;;;17.48;62.09;96356.50;5056780;28;20438;-71
2023/04/29 12:26:28;;;;;;;;;;;;;;;17.42;61.22;96349.59;5057477;28;19953;-71
2023/04/29 12:28:56;;;;;;;;;;;;;;;17.50;62.70;96353.59;5057235;28;19960;-78
2023/04/29 12:31:23;;;;;;;;;;;;;;;17.59;61.69;96350.13;5057446;28;19945;-70
2023/04/29 12:33:52;;;;;;;;;;;;;;;17.57;62.10;96344.31;5056715;28;19959;-78
2023/04/29 12:36:18;;;;;;;;;;;;;;;17.60;60.67;96327.88;5074160;28;19966;-78
2023/04/29 12:38:46;;;;;;;;;;;;;;;17.71;61.09;96339.28;5056669;28;20416;-78
2023/04/29 12:41:16;;;;;;;;;;;;;;;17.80;60.43;96340.31;5056397;28;19948;-79